Time;durP1;ratioP1;P1;durP2;ratioP2;P2;SDS_P1;SDS_P2;PMS_P1;PMS_P2;Temp;Humidity;BMP_temperature;BMP_pressure;BME280_temperature;BME280_humidity;BME280_pressure;Samples;Min_cycle;Max_cycle;Signal;HPM_P1;HPM_P2
2022/05/05 00:00:55;;;;;;;0.30;0.20;;;12.00;99.90;;;;;;5070385;28;20621;-91
2022/05/05 00:03:22;;;;;;;0.30;0.17;;;11.90;99.90;;;;;;5071721;28;20480;-91
2022/05/05 00:05:50;;;;;;;0.30;0.20;;;12.00;99.90;;;;;;5072026;28;21077;-91
2022/05/05 00:08:17;;;;;;;0.30;0.20;;;12.00;99.90;;;;;;5068508;28;20546;-90
2022/05/05 00:16:13;;;;;;;0.30;0.20;;;11.80;99.90;;;;;;5084370;28;20513;-91
2022/05/05 00:18:40;;;;;;;0.30;0.20;;;11.70;99.90;;;;;;5067779;28;20466;-91
2022/05/05 00:21:08;;;;;;;0.30;0.20;;;11.80;99.90;;;;;;5071020;28;20489;-92
2022/05/05 00:23:37;;;;;;;0.30;0.20;;;11.70;99.90;;;;;;5071286;28;20873;-92
2022/05/05 00:26:04;;;;;;;0.30;0.20;;;11.60;99.90;;;;;;5069127;28;20658;-92
2022/05/05 00:28:31;;;;;;;0.30;0.20;;;11.60;99.90;;;;;;5066401;28;20464;-92
2022/05/05 00:30:58;;;;;;;0.30;0.20;;;11.60;99.90;;;;;;5064063;28;20464;-92
2022/05/05 00:33:25;;;;;;;0.30;0.20;;;11.50;99.90;;;;;;5065702;28;20463;-92
2022/05/05 00:35:52;;;;;;;0.30;0.20;;;11.50;99.90;;;;;;5065591;28;20462;-92
2022/05/05 00:38:21;;;;;;;0.30;0.20;;;11.40;99.90;;;;;;5068387;28;20531;-92
2022/05/05 00:40:48;;;;;;;0.30;0.20;;;11.40;99.90;;;;;;5069217;28;20459;-92
2022/05/05 00:43:15;;;;;;;0.30;0.20;;;11.40;99.90;;;;;;5070493;28;20466;-92
2022/05/05 00:45:42;;;;;;;0.30;0.20;;;11.40;99.90;;;;;;5067956;28;20459;-92
2022/05/05 00:48:12;;;;;;;0.30;0.20;;;11.30;99.90;;;;;;5065738;28;20532;-92
2022/05/05 00:50:39;;;;;;;0.30;0.20;;;11.30;99.90;;;;;;5075163;28;20485;-92
2022/05/05 00:53:06;;;;;;;0.30;0.20;;;11.30;99.90;;;;;;5069156;28;20474;-92
2022/05/05 00:55:38;;;;;;;0.30;0.20;;;11.20;99.90;;;;;;5064949;28;20519;-92
2022/05/05 00:58:06;;;;;;;0.30;0.20;;;11.20;99.90;;;;;;5063429;28;20465;-92
2022/05/05 01:00:34;;;;;;;0.30;0.20;;;11.20;99.90;;;;;;5066095;28;20583;-91
2022/05/05 01:03:02;;;;;;;0.30;0.13;;;11.30;99.90;;;;;;5068708;28;20479;-92
2022/05/05 01:05:30;;;;;;;0.30;0.20;;;11.20;99.90;;;;;;5069421;28;20452;-92
2022/05/05 01:07:57;;;;;;;0.30;0.20;;;11.20;99.90;;;;;;5063488;28;20453;-90
2022/05/05 01:10:25;;;;;;;0.30;0.20;;;11.10;99.90;;;;;;5068553;28;20490;-90
2022/05/05 01:12:54;;;;;;;0.30;0.20;;;11.00;99.90;;;;;;5064590;28;20464;-90
2022/05/05 01:15:22;;;;;;;0.30;0.20;;;11.00;99.90;;;;;;5067167;28;20463;-90
2022/05/05 01:17:50;;;;;;;0.30;0.20;;;11.00;99.90;;;;;;5071924;28;20524;-90
2022/05/05 01:20:18;;;;;;;0.30;0.20;;;10.90;99.90;;;;;;5063405;28;20488;-90
2022/05/05 01:22:47;;;;;;;0.30;0.20;;;10.90;99.90;;;;;;5071021;28;20463;-89
2022/05/05 01:28:13;;;;;;;0.30;0.20;;;11.00;99.90;;;;;;5074890;28;20527;-89
2022/05/05 01:30:42;;;;;;;0.30;0.20;;;10.90;99.90;;;;;;5066163;28;21189;-90
2022/05/05 01:33:14;;;;;;;0.30;0.20;;;11.00;99.90;;;;;;5067524;28;20464;-90
2022/05/05 01:35:42;;;;;;;0.30;0.20;;;11.00;99.90;;;;;;5063976;28;20464;-91
2022/05/05 01:38:12;;;;;;;0.30;0.20;;;10.90;99.90;;;;;;5063906;28;20461;-90
2022/05/05 01:40:40;;;;;;;0.30;0.10;;;10.80;99.90;;;;;;5071277;28;20453;-90
2022/05/05 01:43:08;;;;;;;0.30;0.10;;;10.70;99.90;;;;;;5064784;28;20471;-89
2022/05/05 01:45:35;;;;;;;0.30;0.10;;;10.70;99.90;;;;;;5068961;28;20460;-89
2022/05/05 01:48:02;;;;;;;0.30;0.20;;;10.70;99.90;;;;;;5067282;28;20491;-90
2022/05/05 01:50:30;;;;;;;0.30;0.10;;;10.70;99.90;;;;;;5065189;28;20537;-90
2022/05/05 01:52:58;;;;;;;0.30;0.20;;;10.70;99.90;;;;;;5075755;28;20463;-90
2022/05/05 01:55:26;;;;;;;0.30;0.20;;;10.70;99.90;;;;;;5070421;28;20537;-91
2022/05/05 01:57:53;;;;;;;0.30;0.20;;;10.70;99.90;;;;;;5065040;28;20471;-91
2022/05/05 02:00:21;;;;;;;0.30;0.20;;;10.70;99.90;;;;;;5066581;28;20544;-91
2022/05/05 02:02:48;;;;;;;0.30;0.20;;;10.80;99.90;;;;;;5070761;28;20444;-90
2022/05/05 02:05:16;;;;;;;0.30;0.17;;;10.80;99.90;;;;;;5064763;28;20524;-91
2022/05/05 02:07:44;;;;;;;0.30;0.20;;;10.70;99.90;;;;;;5072470;28;20494;-91
2022/05/05 02:10:14;;;;;;;0.30;0.10;;;10.70;99.90;;;;;;5062645;28;20553;-91
2022/05/05 02:12:43;;;;;;;0.30;0.10;;;10.80;99.90;;;;;;5067445;28;20463;-91
2022/05/05 02:15:11;;;;;;;0.30;0.20;;;10.80;99.90;;;;;;5066490;28;21010;-91
2022/05/05 02:17:41;;;;;;;0.30;0.20;;;10.80;99.90;;;;;;5064864;28;20485;-91
2022/05/05 02:20:11;;;;;;;0.30;0.20;;;10.80;99.90;;;;;;5066974;28;20491;-91
2022/05/05 02:22:38;;;;;;;0.30;0.20;;;10.70;99.90;;;;;;5069968;28;20459;-91
2022/05/05 02:25:05;;;;;;;0.30;0.10;;;10.70;99.90;;;;;;5063576;28;20526;-91
2022/05/05 02:27:47;;;;;;;0.30;0.10;;;10.70;99.90;;;;;;5065586;28;20459;-92
2022/05/05 02:30:15;;;;;;;1.37;0.73;;;10.80;99.90;;;;;;5067714;28;20483;-91
2022/05/05 02:32:43;;;;;;;0.30;0.20;;;10.70;99.90;;;;;;5067312;28;20467;-92
2022/05/05 02:35:10;;;;;;;0.30;0.20;;;10.80;99.90;;;;;;5071342;28;20472;-92
2022/05/05 02:40:22;;;;;;;0.30;0.20;;;10.80;99.90;;;;;;5071950;28;20455;-92
2022/05/05 02:42:50;;;;;;;0.30;0.20;;;10.80;99.90;;;;;;5083340;28;20460;-92
2022/05/05 02:45:17;;;;;;;0.30;0.20;;;10.90;99.90;;;;;;5091221;28;20443;-92
2022/05/05 02:47:46;;;;;;;0.30;0.20;;;10.90;99.90;;;;;;5082773;28;20443;-91
2022/05/05 02:50:13;;;;;;;0.30;0.20;;;10.90;99.90;;;;;;5070050;28;20499;-91
2022/05/05 02:52:40;;;;;;;0.30;0.10;;;11.00;99.90;;;;;;5072193;28;20529;-91
2022/05/05 02:55:07;;;;;;;0.30;0.20;;;10.90;99.90;;;;;;5070136;28;20471;-91
2022/05/05 02:57:34;;;;;;;0.30;0.10;;;10.90;99.90;;;;;;5066062;28;20455;-91
2022/05/05 03:00:07;;;;;;;0.30;0.10;;;10.80;99.90;;;;;;5062638;28;20658;-91
2022/05/05 03:02:34;;;;;;;0.30;0.20;;;10.70;99.90;;;;;;5068870;28;20955;-92
2022/05/05 03:05:01;;;;;;;0.30;0.20;;;10.60;99.90;;;;;;5064626;28;20529;-90
2022/05/05 03:07:28;;;;;;;0.30;0.10;;;10.50;99.90;;;;;;5064477;28;20456;-91
2022/05/05 03:09:55;;;;;;;0.30;0.20;;;10.40;99.90;;;;;;5064325;28;20487;-91
2022/05/05 03:12:22;;;;;;;0.30;0.20;;;10.30;99.90;;;;;;5065198;28;20536;-91
2022/05/05 03:14:49;;;;;;;0.30;0.20;;;10.20;99.90;;;;;;5063898;28;21129;-91
2022/05/05 03:17:17;;;;;;;0.30;0.20;;;10.30;99.90;;;;;;5080634;28;20906;-92
2022/05/05 03:19:44;;;;;;;0.30;0.20;;;10.20;99.90;;;;;;5073909;28;20487;-91
2022/05/05 03:22:11;;;;;;;0.30;0.20;;;10.00;99.90;;;;;;5065888;28;20467;-92
2022/05/05 03:24:38;;;;;;;0.30;0.20;;;9.90;99.90;;;;;;5070510;28;20447;-92
2022/05/05 03:27:06;;;;;;;0.30;0.10;;;9.80;99.90;;;;;;5069668;28;20471;-91
2022/05/05 03:29:33;;;;;;;0.30;0.20;;;9.80;99.90;;;;;;5069265;28;20464;-91
2022/05/05 03:32:00;;;;;;;0.30;0.20;;;9.80;99.90;;;;;;5067938;28;20928;-92
2022/05/05 03:34:28;;;;;;;0.30;0.20;;;9.70;99.90;;;;;;5067589;28;20923;-91
2022/05/05 03:36:56;;;;;;;0.30;0.20;;;9.70;99.90;;;;;;5080514;28;20548;-92
2022/05/05 03:39:23;;;;;;;0.30;0.20;;;9.70;99.90;;;;;;5078928;28;21110;-90
2022/05/05 03:41:50;;;;;;;0.30;0.10;;;9.60;99.90;;;;;;5069780;28;20983;-90
2022/05/05 03:44:17;;;;;;;0.30;0.20;;;9.70;99.90;;;;;;5071681;28;20472;-91
2022/05/05 03:46:44;;;;;;;0.30;0.20;;;9.90;99.90;;;;;;5069510;28;20459;-90
2022/05/05 03:49:11;;;;;;;0.30;0.20;;;9.90;99.90;;;;;;5078096;28;20466;-91
2022/05/05 03:51:39;;;;;;;0.30;0.10;;;9.90;99.90;;;;;;5065008;28;20486;-91
2022/05/05 03:54:06;;;;;;;0.30;0.10;;;9.90;99.90;;;;;;5063863;28;20857;-91
2022/05/05 03:56:33;;;;;;;0.30;0.10;;;9.90;99.90;;;;;;5067088;28;20979;-91
2022/05/05 03:59:01;;;;;;;0.30;0.20;;;10.00;99.90;;;;;;5065026;28;20505;-91
2022/05/05 04:01:28;;;;;;;0.30;0.10;;;10.00;99.90;;;;;;5070978;28;20455;-91
2022/05/05 04:03:55;;;;;;;0.30;0.20;;;10.00;99.90;;;;;;5067123;28;20468;-91
2022/05/05 04:06:22;;;;;;;0.30;0.10;;;10.00;99.90;;;;;;5069124;28;20470;-91
2022/05/05 04:08:50;;;;;;;0.30;0.20;;;10.10;99.90;;;;;;5067923;28;20974;-90
2022/05/05 04:11:17;;;;;;;0.30;0.20;;;10.20;99.90;;;;;;5070316;28;20544;-90
2022/05/05 04:13:46;;;;;;;0.30;0.20;;;10.30;99.90;;;;;;5069969;28;20690;-91
2022/05/05 04:16:13;;;;;;;0.30;0.10;;;10.40;99.90;;;;;;5067210;28;20473;-91
2022/05/05 04:18:40;;;;;;;0.30;0.20;;;10.50;99.90;;;;;;5067155;28;20482;-91
2022/05/05 04:21:07;;;;;;;0.30;0.10;;;10.60;99.90;;;;;;5066376;28;20487;-91
2022/05/05 04:23:36;;;;;;;0.30;0.20;;;10.70;99.90;;;;;;5067850;28;20465;-91
2022/05/05 04:26:05;;;;;;;0.30;0.20;;;10.70;99.90;;;;;;5065090;28;20479;-91
2022/05/05 04:28:33;;;;;;;0.30;0.20;;;10.90;99.90;;;;;;5069623;28;20460;-91
2022/05/05 04:31:00;;;;;;;0.30;0.20;;;10.90;99.90;;;;;;5069237;28;20491;-90
2022/05/05 04:33:27;;;;;;;0.30;0.10;;;10.90;99.90;;;;;;5066200;28;20460;-91
2022/05/05 04:35:55;;;;;;;0.30;0.20;;;11.00;99.90;;;;;;5067533;28;21063;-91
2022/05/05 04:38:22;;;;;;;0.30;0.10;;;11.10;99.90;;;;;;5068612;28;20498;-90
2022/05/05 04:40:49;;;;;;;0.30;0.13;;;11.20;99.90;;;;;;5074954;28;20513;-90
2022/05/05 04:43:18;;;;;;;0.30;0.20;;;11.20;99.90;;;;;;5069037;28;20944;-91
2022/05/05 04:45:45;;;;;;;0.30;0.20;;;11.30;99.90;;;;;;5071625;28;20513;-91
2022/05/05 04:48:12;;;;;;;0.30;0.10;;;11.40;99.90;;;;;;5066958;28;21060;-91
2022/05/05 04:50:39;;;;;;;0.30;0.20;;;11.50;99.90;;;;;;5082436;28;20966;-91
2022/05/05 04:53:06;;;;;;;0.30;0.20;;;11.50;99.90;;;;;;5077945;28;20468;-90
2022/05/05 04:55:33;;;;;;;0.30;0.10;;;11.60;99.90;;;;;;5067481;28;20468;-91
2022/05/05 04:58:00;;;;;;;0.30;0.20;;;11.80;99.90;;;;;;5078915;28;20472;-91
2022/05/05 05:00:30;;;;;;;0.30;0.20;;;11.90;99.90;;;;;;5068188;28;20459;-90
2022/05/05 05:02:58;;;;;;;0.30;0.20;;;12.00;99.90;;;;;;5080825;28;20491;-91
2022/05/05 05:05:25;;;;;;;0.30;0.10;;;12.10;99.90;;;;;;5081319;28;20468;-91
2022/05/05 05:07:52;;;;;;;0.30;0.10;;;12.10;99.90;;;;;;5067472;28;20477;-90
2022/05/05 05:10:19;;;;;;;0.30;0.20;;;12.10;99.90;;;;;;5063528;28;20491;-91
2022/05/05 05:12:47;;;;;;;0.30;0.20;;;12.20;99.90;;;;;;5066424;28;20968;-92
2022/05/05 05:15:14;;;;;;;0.30;0.10;;;12.30;99.90;;;;;;5073343;28;20493;-91
2022/05/05 05:17:42;;;;;;;0.30;0.20;;;12.40;99.90;;;;;;5065722;28;21004;-91
2022/05/05 05:20:10;;;;;;;0.30;0.10;;;12.50;99.90;;;;;;5070303;28;20595;-91
2022/05/05 05:22:38;;;;;;;0.30;0.20;;;12.40;99.90;;;;;;5066004;28;20651;-91
2022/05/05 05:25:06;;;;;;;0.30;0.20;;;12.40;99.90;;;;;;5064331;28;20471;-91
2022/05/05 05:27:32;;;;;;;0.30;0.20;;;12.40;99.90;;;;;;5065202;28;20469;-91
2022/05/05 05:30:00;;;;;;;0.30;0.20;;;12.50;99.90;;;;;;5069753;28;20465;-90
2022/05/05 05:32:27;;;;;;;0.30;0.20;;;12.70;99.90;;;;;;5079326;28;21145;-91
2022/05/05 05:34:55;;;;;;;0.30;0.20;;;12.90;99.90;;;;;;5068346;28;20510;-91
2022/05/05 05:37:22;;;;;;;0.30;0.20;;;13.10;99.90;;;;;;5065688;28;20450;-91
2022/05/05 05:39:49;;;;;;;0.30;0.20;;;13.20;99.90;;;;;;5091937;28;20454;-91
2022/05/05 05:42:16;;;;;;;0.30;0.20;;;13.20;99.90;;;;;;5089943;28;20521;-91
2022/05/05 05:44:43;;;;;;;0.30;0.20;;;13.20;99.90;;;;;;5074726;28;20603;-91
2022/05/05 05:47:12;;;;;;;0.30;0.20;;;13.30;99.90;;;;;;5066744;28;20548;-91
2022/05/05 05:49:39;;;;;;;0.30;0.20;;;13.20;99.90;;;;;;5069986;28;20458;-92
2022/05/05 05:52:08;;;;;;;0.30;0.20;;;13.20;99.90;;;;;;5067761;28;21022;-92
2022/05/05 05:54:35;;;;;;;0.30;0.20;;;13.50;99.90;;;;;;5065115;28;20460;-92
2022/05/05 05:57:02;;;;;;;0.30;0.20;;;13.70;99.90;;;;;;5065362;28;20919;-92
2022/05/05 05:59:29;;;;;;;0.30;0.20;;;13.90;99.90;;;;;;5067517;28;20483;-91
2022/05/05 06:04:40;;;;;;;0.30;0.17;;;14.20;99.90;;;;;;5066732;28;20810;-93
2022/05/05 06:07:09;;;;;;;0.30;0.20;;;14.30;99.90;;;;;;5067149;28;20912;-91
2022/05/05 06:09:36;;;;;;;0.30;0.20;;;14.50;99.90;;;;;;5064015;28;20444;-92
2022/05/05 06:12:04;;;;;;;0.30;0.20;;;14.40;99.90;;;;;;5062327;28;20480;-93
2022/05/05 06:14:31;;;;;;;0.30;0.20;;;14.30;99.90;;;;;;5064916;28;20460;-91
2022/05/05 06:16:58;;;;;;;0.30;0.20;;;14.30;99.90;;;;;;5070432;28;21046;-92
2022/05/05 06:19:25;;;;;;;0.30;0.20;;;14.40;99.90;;;;;;5067587;28;20451;-92
2022/05/05 06:21:52;;;;;;;0.30;0.20;;;14.70;99.90;;;;;;5069136;28;20476;-93
2022/05/05 06:24:20;;;;;;;0.30;0.20;;;14.70;99.90;;;;;;5065795;28;20472;-92
2022/05/05 06:26:48;;;;;;;0.30;0.20;;;14.60;99.90;;;;;;5064119;28;20925;-92
2022/05/05 06:29:17;;;;;;;0.30;0.20;;;14.60;99.90;;;;;;5064434;28;20461;-93
2022/05/05 06:31:50;;;;;;;0.30;0.20;;;14.70;99.90;;;;;;5066705;28;20956;-91
2022/05/05 06:34:17;;;;;;;0.30;0.20;;;14.70;99.90;;;;;;5064385;28;20462;-92
2022/05/05 06:36:44;;;;;;;0.30;0.20;;;14.80;99.90;;;;;;5069204;28;20930;-91
2022/05/05 06:39:11;;;;;;;0.30;0.20;;;15.00;99.90;;;;;;5066884;28;20990;-91
2022/05/05 06:41:40;;;;;;;0.30;0.20;;;15.20;99.90;;;;;;5067556;28;20459;-91
2022/05/05 06:44:07;;;;;;;0.30;0.20;;;15.40;99.90;;;;;;5065416;28;20539;-90
2022/05/05 06:46:34;;;;;;;0.30;0.20;;;15.70;99.90;;;;;;5066664;28;20450;-91
2022/05/05 06:49:02;;;;;;;0.30;0.20;;;15.70;99.90;;;;;;5069181;28;20465;-91
2022/05/05 06:51:29;;;;;;;0.30;0.20;;;16.10;99.90;;;;;;5066375;28;21308;-91
2022/05/05 06:53:56;;;;;;;0.30;0.20;;;16.10;99.90;;;;;;5065116;28;20461;-91
2022/05/05 06:56:24;;;;;;;0.30;0.20;;;15.90;99.90;;;;;;5066366;28;20468;-90
2022/05/05 06:58:52;;;;;;;0.30;0.20;;;15.80;99.90;;;;;;5070159;28;20465;-91
2022/05/05 07:06:48;;;;;;;0.30;0.20;;;16.20;99.90;;;;;;5069689;28;20556;-90
2022/05/05 07:11:59;;;;;;;0.30;0.20;;;16.40;99.90;;;;;;5070625;28;20483;-91
2022/05/05 07:14:28;;;;;;;0.30;0.20;;;16.20;99.90;;;;;;5065926;28;20447;-91
2022/05/05 07:16:55;;;;;;;0.30;0.20;;;16.30;99.90;;;;;;5066644;28;20913;-91
2022/05/05 07:19:22;;;;;;;0.30;0.20;;;16.30;99.90;;;;;;5066729;28;20497;-91
2022/05/05 07:21:49;;;;;;;0.30;0.20;;;16.50;99.90;;;;;;5068896;28;20516;-90
2022/05/05 07:24:16;;;;;;;0.30;0.20;;;16.80;99.90;;;;;;5067468;28;20461;-90
2022/05/05 07:26:43;;;;;;;0.30;0.20;;;16.70;99.90;;;;;;5070078;28;20547;-90
2022/05/05 07:29:10;;;;;;;0.30;0.20;;;16.90;99.90;;;;;;5072467;28;20470;-90
2022/05/05 07:31:38;;;;;;;0.30;0.20;;;17.00;99.90;;;;;;5075115;28;20497;-91
2022/05/05 07:34:06;;;;;;;0.30;0.20;;;16.90;99.90;;;;;;5078012;28;20526;-91
2022/05/05 07:36:33;;;;;;;0.30;0.20;;;16.70;99.90;;;;;;5073342;28;20576;-90
2022/05/05 07:38:59;;;;;;;0.30;0.20;;;16.40;99.90;;;;;;5064604;28;20540;-91
2022/05/05 07:41:26;;;;;;;0.30;0.20;;;16.60;99.90;;;;;;5066864;28;20990;-91
2022/05/05 07:43:53;;;;;;;0.30;0.20;;;16.80;99.90;;;;;;5070162;28;20547;-91
2022/05/05 07:46:20;;;;;;;0.30;0.20;;;17.10;99.90;;;;;;5065002;28;20967;-91
2022/05/05 07:48:49;;;;;;;0.30;0.20;;;17.20;99.90;;;;;;5066500;28;20459;-91
2022/05/05 07:51:16;;;;;;;0.30;0.20;;;17.20;99.90;;;;;;5064830;28;20914;-91
2022/05/05 07:54:34;;;;;;;0.30;0.20;;;17.50;99.90;;;;;;5070626;28;20927;-91
2022/05/05 07:56:30;;;;;;;0.30;0.20;;;17.90;99.90;;;;;;5063830;28;20454;-91
2022/05/05 07:58:57;;;;;;;0.30;0.20;;;18.50;99.70;;;;;;5068073;28;20504;-92
2022/05/05 08:01:24;;;;;;;0.30;0.20;;;18.70;98.70;;;;;;5063605;28;20545;-92
2022/05/05 08:03:53;;;;;;;0.30;0.20;;;18.50;98.30;;;;;;5063109;28;20533;-91
2022/05/05 08:06:19;;;;;;;0.30;0.20;;;17.90;97.80;;;;;;5062114;28;20542;-91
2022/05/05 08:08:46;;;;;;;0.30;0.20;;;17.80;97.20;;;;;;5068873;28;21027;-91
2022/05/05 08:11:13;;;;;;;0.30;0.20;;;17.70;99.20;;;;;;5069731;28;20480;-90
2022/05/05 08:13:40;;;;;;;0.40;0.20;;;17.90;99.90;;;;;;5079919;28;20459;-91
2022/05/05 08:16:08;;;;;;;0.40;0.20;;;17.80;99.20;;;;;;5076479;28;20517;-92
2022/05/05 08:18:38;;;;;;;0.30;0.20;;;17.70;99.90;;;;;;5079384;28;20472;-91
2022/05/05 08:21:09;;;;;;;0.30;0.20;;;17.90;99.90;;;;;;5074527;28;20821;-91
2022/05/05 08:23:36;;;;;;;0.30;0.30;;;17.90;99.90;;;;;;5072548;28;20491;-91
2022/05/05 08:28:48;;;;;;;0.40;0.20;;;18.20;98.10;;;;;;5072986;28;20458;-92
2022/05/05 08:31:15;;;;;;;0.30;0.20;;;17.90;98.90;;;;;;5076605;28;20497;-91
2022/05/05 08:33:42;;;;;;;0.30;0.20;;;17.90;98.70;;;;;;5073517;28;20537;-92
2022/05/05 08:36:10;;;;;;;0.40;0.20;;;18.00;97.90;;;;;;5075610;28;20463;-92
2022/05/05 08:38:37;;;;;;;0.30;0.20;;;18.20;98.10;;;;;;5067766;28;21013;-92
2022/05/05 08:41:05;;;;;;;0.30;0.20;;;18.60;97.30;;;;;;5072537;28;20462;-92
2022/05/05 08:43:32;;;;;;;0.30;0.20;;;18.50;95.00;;;;;;5066379;28;20549;-92
2022/05/05 08:45:59;;;;;;;0.30;0.20;;;18.30;96.80;;;;;;5067684;28;22701;-91
2022/05/05 08:48:29;;;;;;;0.40;0.20;;;18.20;96.40;;;;;;5067539;28;20520;-93
2022/05/05 08:50:58;;;;;;;0.30;0.20;;;18.40;97.10;;;;;;5070312;28;20482;-92
2022/05/05 08:53:35;;;;;;;0.40;0.20;;;18.60;96.30;;;;;;5080850;28;20496;-92
2022/05/05 08:56:02;;;;;;;0.30;0.20;;;19.00;94.20;;;;;;5070434;28;20494;-92
2022/05/05 08:58:30;;;;;;;0.30;0.20;;;19.10;93.80;;;;;;5105386;28;20435;-92
2022/05/05 09:00:57;;;;;;;0.30;0.20;;;19.10;94.10;;;;;;5093520;28;20486;-92
2022/05/05 09:03:24;;;;;;;0.40;0.20;;;18.80;93.30;;;;;;5073562;28;20476;-92
2022/05/05 09:05:55;;;;;;;0.40;0.20;;;18.70;94.50;;;;;;5079133;28;20464;-92
2022/05/05 09:08:32;;;;;;;0.30;0.20;;;18.90;94.30;;;;;;5075079;28;20466;-92
2022/05/05 09:11:01;;;;;;;0.40;0.20;;;19.00;94.60;;;;;;5079731;28;20463;-92
2022/05/05 09:13:29;;;;;;;0.40;0.20;;;19.40;93.70;;;;;;5073735;28;20530;-92
2022/05/05 09:15:57;;;;;;;0.40;0.20;;;19.60;92.00;;;;;;5080718;28;20463;-92
2022/05/05 09:18:28;;;;;;;0.30;0.20;;;19.90;92.80;;;;;;5074379;28;20461;-92
2022/05/05 09:20:56;;;;;;;0.40;0.20;;;20.00;92.90;;;;;;5069279;28;20514;-92
2022/05/05 09:23:32;;;;;;;0.40;0.20;;;19.80;91.90;;;;;;5082990;28;20479;-93
2022/05/05 09:26:01;;;;;;;0.30;0.20;;;19.90;91.90;;;;;;5071717;28;20479;-92
2022/05/05 09:28:31;;;;;;;0.40;0.20;;;19.30;92.70;;;;;;5066670;28;20488;-92
2022/05/05 09:31:06;;;;;;;0.40;0.20;;;19.00;94.30;;;;;;5070625;28;20468;-92
2022/05/05 09:33:43;;;;;;;0.40;0.20;;;19.10;92.20;;;;;;5071436;28;20485;-92
2022/05/05 09:36:12;;;;;;;0.40;0.20;;;19.30;92.30;;;;;;5072641;28;20530;-92
2022/05/05 09:38:51;;;;;;;0.40;0.20;;;19.40;91.60;;;;;;5071121;28;21493;-91
2022/05/05 09:41:18;;;;;;;0.40;0.20;;;19.30;91.60;;;;;;5078028;28;20462;-92
2022/05/05 09:43:45;;;;;;;0.40;0.20;;;19.50;90.20;;;;;;5070392;28;20476;-92
2022/05/05 09:46:31;;;;;;;0.40;0.20;;;19.60;94.50;;;;;;5084322;28;20464;-92
2022/05/05 09:49:07;;;;;;;0.40;0.20;;;19.70;94.30;;;;;;5070601;28;20804;-92
2022/05/05 09:51:38;;;;;;;0.40;0.20;;;19.90;94.60;;;;;;5077254;28;20474;-92
2022/05/05 09:59:40;;;;;;;0.40;0.20;;;20.70;92.60;;;;;;5069317;28;20481;-92
2022/05/05 10:02:17;;;;;;;0.40;0.20;;;20.30;92.80;;;;;;5067966;28;20551;-92
2022/05/05 10:04:49;;;;;;;0.40;0.20;;;20.10;91.30;;;;;;5074395;28;20473;-92
2022/05/05 10:07:20;;;;;;;0.40;0.20;;;20.00;90.40;;;;;;5071410;28;20937;-92
2022/05/05 10:09:49;;;;;;;0.40;0.20;;;20.40;88.30;;;;;;5069213;28;20467;-92
2022/05/05 10:12:18;;;;;;;0.40;0.20;;;20.30;90.00;;;;;;5072407;28;20970;-92
2022/05/05 10:14:46;;;;;;;0.40;0.20;;;20.50;92.50;;;;;;5071872;28;20958;-93
2022/05/05 10:17:16;;;;;;;0.40;0.20;;;20.60;90.80;;;;;;5083943;28;20448;-92
2022/05/05 10:19:44;;;;;;;0.40;0.20;;;20.30;90.50;;;;;;5083637;28;21313;-92
2022/05/05 10:22:19;;;;;;;0.40;0.20;;;20.40;90.30;;;;;;5078090;28;20471;-93
2022/05/05 10:24:55;;;;;;;0.40;0.20;;;20.30;87.10;;;;;;5078785;28;20452;-92
2022/05/05 10:27:22;;;;;;;0.30;0.20;;;20.10;91.70;;;;;;5079443;28;20459;-91
2022/05/05 10:29:49;;;;;;;0.40;0.20;;;20.10;90.40;;;;;;5085262;28;20524;-92
2022/05/05 10:32:20;;;;;;;0.40;0.20;;;20.20;85.20;;;;;;5080093;28;20490;-93
2022/05/05 10:34:52;;;;;;;0.40;0.20;;;20.20;87.10;;;;;;5072880;28;20728;-92
2022/05/05 10:37:22;;;;;;;0.40;0.20;;;20.40;89.70;;;;;;5076345;28;20468;-92
2022/05/05 10:39:51;;;;;;;0.40;0.20;;;20.00;86.50;;;;;;5067404;28;20481;-92
2022/05/05 10:42:38;;;;;;;0.40;0.20;;;20.20;87.30;;;;;;5073601;28;20553;-92
2022/05/05 10:45:11;;;;;;;0.40;0.20;;;20.20;87.40;;;;;;5072440;28;20471;-92
2022/05/05 10:48:16;;;;;;;0.40;0.20;;;20.60;90.50;;;;;;5080547;28;20476;-92
2022/05/05 10:50:50;;;;;;;0.40;0.20;;;20.50;88.90;;;;;;5074433;28;20458;-93
2022/05/05 10:53:32;;;;;;;0.37;0.20;;;20.60;83.10;;;;;;5067883;28;20505;-92
2022/05/05 10:56:01;;;;;;;0.40;0.20;;;20.70;86.00;;;;;;5068582;28;20548;-93
2022/05/05 10:58:58;;;;;;;0.40;0.20;;;20.90;84.50;;;;;;5070646;28;20461;-92
2022/05/05 11:01:26;;;;;;;0.40;0.20;;;21.20;87.60;;;;;;5070855;28;20483;-93
2022/05/05 11:04:25;;;;;;;0.40;0.20;;;21.50;88.00;;;;;;5068212;28;20460;-91
2022/05/05 11:07:31;;;;;;;0.40;0.20;;;21.20;88.70;;;;;;5068868;28;20545;-91
2022/05/05 11:10:00;;;;;;;0.40;0.20;;;20.80;86.80;;;;;;5065102;28;20461;-90
2022/05/05 11:12:33;;;;;;;0.40;0.20;;;21.00;88.70;;;;;;5069935;28;20892;-91
2022/05/05 11:23:31;;;;;;;0.40;0.20;;;20.60;87.30;;;;;;5062890;28;20542;-91
2022/05/05 11:26:00;;;;;;;0.40;0.20;;;20.80;88.50;;;;;;5070471;28;20534;-92
2022/05/05 11:28:30;;;;;;;0.40;0.20;;;20.90;85.80;;;;;;5070996;28;20851;-91
2022/05/05 11:30:58;;;;;;;0.40;0.20;;;21.10;85.30;;;;;;5065362;28;20864;-91
2022/05/05 11:33:25;;;;;;;0.40;0.20;;;21.40;80.20;;;;;;5075901;28;20503;-92
2022/05/05 11:36:02;;;;;;;0.40;0.20;;;21.50;77.00;;;;;;5073191;28;20459;-91
2022/05/05 11:38:29;;;;;;;0.40;0.20;;;21.60;81.70;;;;;;5074066;28;20466;-91
2022/05/05 11:41:01;;;;;;;0.40;0.20;;;21.60;79.40;;;;;;5075230;28;20549;-91
2022/05/05 11:46:18;;;;;;;0.40;0.20;;;21.70;76.50;;;;;;5072444;28;20458;-92
2022/05/05 11:48:51;;;;;;;0.40;0.20;;;22.00;79.80;;;;;;5077282;28;20796;-92
2022/05/05 11:51:22;;;;;;;0.40;0.20;;;21.90;75.50;;;;;;5074529;28;21113;-92
2022/05/05 11:53:49;;;;;;;0.40;0.20;;;22.30;77.90;;;;;;5071181;28;20990;-92
2022/05/05 11:56:17;;;;;;;0.40;0.20;;;22.40;75.20;;;;;;5066776;28;20513;-92
2022/05/05 12:01:40;;;;;;;0.40;0.20;;;22.80;74.40;;;;;;5067741;28;20449;-91
2022/05/05 12:04:08;;;;;;;0.40;0.20;;;22.00;75.80;;;;;;5077623;28;20489;-91
2022/05/05 12:06:37;;;;;;;0.40;0.20;;;22.20;77.30;;;;;;5072542;28;21189;-91
2022/05/05 12:09:06;;;;;;;0.40;0.20;;;22.30;81.80;;;;;;5069125;28;20940;-91
2022/05/05 12:11:33;;;;;;;0.40;0.20;;;22.20;79.60;;;;;;5071291;28;20574;-93
2022/05/05 12:14:03;;;;;;;0.40;0.20;;;22.40;78.30;;;;;;5066749;28;21103;-90
2022/05/05 12:16:34;;;;;;;0.40;0.20;;;22.20;70.00;;;;;;5086859;28;20436;-91
2022/05/05 12:19:01;;;;;;;0.40;0.20;;;22.30;71.20;;;;;;5093017;28;20467;-91
2022/05/05 12:21:28;;;;;;;0.40;0.30;;;22.70;70.10;;;;;;5076825;28;20485;-91
2022/05/05 12:24:03;;;;;;;0.40;0.20;;;22.80;71.20;;;;;;5078302;28;20451;-90
2022/05/05 12:26:32;;;;;;;0.40;0.20;;;23.00;79.60;;;;;;5069451;28;20553;-90
2022/05/05 12:28:59;;;;;;;0.40;0.20;;;23.20;76.80;;;;;;5074758;28;20832;-90
2022/05/05 12:31:28;;;;;;;0.40;0.20;;;22.70;75.60;;;;;;5072030;28;20463;-91
2022/05/05 12:33:57;;;;;;;0.40;0.20;;;22.60;76.30;;;;;;5071325;28;20484;-91
2022/05/05 12:36:29;;;;;;;0.40;0.20;;;22.80;75.90;;;;;;5069068;28;20923;-90
2022/05/05 12:39:12;;;;;;;0.40;0.20;;;22.90;76.20;;;;;;5067226;28;20510;-91
2022/05/05 12:41:56;;;;;;;0.40;0.20;;;23.00;74.00;;;;;;5069447;28;20951;-91
2022/05/05 12:44:23;;;;;;;0.40;0.20;;;22.30;72.90;;;;;;5067915;28;20488;-92
2022/05/05 12:46:51;;;;;;;0.40;0.20;;;22.00;78.70;;;;;;5062169;28;20464;-92
2022/05/05 12:49:35;;;;;;;0.40;0.20;;;21.60;79.40;;;;;;5070677;28;20459;-91
2022/05/05 12:52:02;;;;;;;0.40;0.20;;;21.20;78.30;;;;;;5065436;28;20512;-91
2022/05/05 13:00:11;;;;;;;0.40;0.20;;;23.10;76.70;;;;;;5064332;28;20489;-92
2022/05/05 13:02:38;;;;;;;0.40;0.20;;;23.50;75.10;;;;;;5071769;28;20455;-92
2022/05/05 13:05:08;;;;;;;0.40;0.20;;;23.20;68.40;;;;;;5071941;28;20470;-92
2022/05/05 13:07:36;;;;;;;0.40;0.20;;;22.60;68.40;;;;;;5066154;28;20480;-92
2022/05/05 13:10:03;;;;;;;0.40;0.20;;;22.10;70.10;;;;;;5065708;28;20463;-91
2022/05/05 13:12:30;;;;;;;0.40;0.20;;;22.10;69.80;;;;;;5064064;28;20521;-91
2022/05/05 13:14:57;;;;;;;0.40;0.20;;;22.40;69.50;;;;;;5064775;28;20998;-92
2022/05/05 13:17:24;;;;;;;0.40;0.20;;;22.40;70.70;;;;;;5063277;28;20459;-91
2022/05/05 13:19:51;;;;;;;0.40;0.20;;;22.30;67.80;;;;;;5065792;28;20725;-91
2022/05/05 13:22:20;;;;;;;0.40;0.20;;;22.50;70.20;;;;;;5067983;28;20495;-92
2022/05/05 13:24:47;;;;;;;0.40;0.20;;;22.60;65.00;;;;;;5070511;28;20512;-92
2022/05/05 13:27:13;;;;;;;0.40;0.20;;;22.20;68.20;;;;;;5068299;28;20468;-91
2022/05/05 13:29:41;;;;;;;0.40;0.20;;;22.40;69.50;;;;;;5061273;28;20541;-92
2022/05/05 13:32:10;;;;;;;0.40;0.20;;;22.70;71.30;;;;;;5066043;28;20469;-92
2022/05/05 13:34:37;;;;;;;0.40;0.20;;;23.10;70.00;;;;;;5063753;28;20495;-91
2022/05/05 13:37:04;;;;;;;0.40;0.20;;;23.70;68.40;;;;;;5064583;28;20541;-95
2022/05/05 13:39:33;;;;;;;0.40;0.20;;;23.40;64.30;;;;;;5059803;28;20689;-92
2022/05/05 13:42:00;;;;;;;0.40;0.20;;;23.60;69.70;;;;;;5068054;28;20467;-91
2022/05/05 13:44:27;;;;;;;0.40;0.20;;;23.90;68.60;;;;;;5063200;28;20459;-91
2022/05/05 13:46:54;;;;;;;0.40;0.20;;;23.80;69.20;;;;;;5075446;28;20493;-91